Meadow Lake, Alaska
Current Conditions -  °F | °C
As of 6:16 PM on Friday 21 Nov 2014 (Local Time) from PAWS Reporting Station
Clear Clear  
Wind Chill: 24°   Ceiling: Unl
Heat Index: 36°   Visibility: 10mi
Dew Point:   Wind: 22mph
Humidity: 33%   Direction: 70°ENE
Pressure: 28.89"   Gusts: 30mph
Location:  61.5841°N, 149.443°W
Report Text: PAWS 220316Z AUTO 07019G26KT 10SM CLR 02/M13 A2889 RMK AO1
Loading
Personal Weather Stations






























Interactive Weather Map New forecast layout! Learn more

10-Day Weather Forecast

Advertisements
Track Severe Weather on mobile